Solamere
, Park City
Last Weather Update:10/31/2011 11:00:00 AM
Date
ETo
ETc
Rain
Irrigation
Req
Temp
Max
Temp
Min
Temp
Avg
Avg RH
Avg Wind
Avg Solar
inches
inches
incehs
inches
F
F
F
%
%
watts/m2
9/1/2011 0.22" 0.16" 0.00" 0.16" 78.8° 41.0° 64.7° 73.5% 3.8 MPH 261.8w/m2
9/2/2011 0.16" 0.12" 0.02" 0.10" 77.1° 32.6° 52.2° 100.0% 1.4 MPH 254.5w/m2
9/3/2011 0.16" 0.12" 0.00" 0.12" 77.0° 29.7° 51.4° 77.2% 1.3 MPH 253.2w/m2
9/4/2011 0.16" 0.12" 0.02" 0.10" 80.9° 32.4° 53.3° 100.0% 1.1 MPH 255.1w/m2
9/5/2011 0.12" 0.08" 0.02" 0.07" 78.7° 37.9° 56.8° 70.6% 1.8 MPH 147.3w/m2
9/6/2011 0.14" 0.10" 0.04" 0.07" 72.0° 39.8° 55.0° 95.9% 1.8 MPH 217.4w/m2
9/7/2011 0.15" 0.10" 0.01" 0.10" 75.6° 35.5° 52.8° 81.5% 1.2 MPH 244.2w/m2
9/8/2011 0.15" 0.10" 0.01" 0.09" 75.3° 34.9° 52.7° 100.0% 1.6 MPH 242.6w/m2
9/9/2011 0.11" 0.07" 0.02" 0.06" 72.9° 37.6° 52.8° 70.0% 1.2 MPH 178.9w/m2
9/10/2011 0.10" 0.07" 0.05" 0.03" 73.3° 37.0° 50.8° 94.9% 1.1 MPH 163.4w/m2
9/11/2011 0.11" 0.08" 0.00" 0.08" 68.5° 40.9° 55.8° 64.1% 2.7 MPH 162.9w/m2
9/12/2011 0.12" 0.08" 0.01" 0.07" 70.9° 38.0° 53.9° 100.0% 1.9 MPH 198.6w/m2
9/13/2011 0.11" 0.07" 0.02" 0.06" 71.7° 35.1° 50.5° 84.4% 1.0 MPH 191.6w/m2
9/14/2011 0.09" 0.05" 0.05" 0.01" 71.3° 36.1° 49.5° 100.0% 1.0 MPH 148.8w/m2
9/15/2011 0.11" 0.07" 0.01" 0.06" 70.6° 36.6° 51.9° 63.6% 1.5 MPH 189.0w/m2
9/16/2011 0.09" 0.05" 0.32" -0.20" 68.1° 43.8° 53.3° 97.9% 3.0 MPH 129.5w/m2
9/17/2011 0.09" 0.05" 0.10" -0.03" 62.6° 35.5° 48.4° 95.6% 1.3 MPH 158.6w/m2
9/18/2011 0.13" 0.08" 0.00" 0.08" 68.8° 32.7° 48.3° 92.3% 1.3 MPH 222.1w/m2
9/19/2011 0.14" 0.08" 0.00" 0.08" 72.4° 33.0° 50.6° 79.9% 1.2 MPH 230.1w/m2
9/20/2011 0.13" 0.08" 0.00" 0.08" 70.0° 32.6° 49.8° 89.0% 1.5 MPH 221.3w/m2
9/21/2011 0.14" 0.08" 0.00" 0.08" 71.3° 31.3° 48.5° 80.3% 1.4 MPH 227.2w/m2
9/22/2011 0.14" 0.08" 0.00" 0.08" 74.5° 31.0° 48.3° 68.9% 1.1 MPH 231.3w/m2
9/23/2011 0.14" 0.08" 0.02" 0.06" 76.4° 28.6° 48.7° 100.0% 1.0 MPH 225.7w/m2
9/24/2011 0.11" 0.06" 0.03" 0.04" 76.5° 29.0° 47.9° 37.5% 1.1 MPH 184.8w/m2
9/25/2011 0.13" 0.07" 0.01" 0.06" 76.5° 32.8° 52.2° 100.0% 1.3 MPH 199.1w/m2
9/26/2011 0.11" 0.06" 0.03" 0.03" 73.2° 37.0° 51.4° 89.5% 1.3 MPH 167.4w/m2
9/27/2011 0.14" 0.07" 0.01" 0.06" 76.3° 32.1° 51.4° 100.0% 1.2 MPH 212.6w/m2
9/28/2011 0.13" 0.07" 0.01" 0.06" 78.4° 33.8° 52.3° 81.1% 1.1 MPH 210.7w/m2
9/29/2011 0.13" 0.07" 0.00" 0.07" 79.1° 32.5° 51.7° 77.8% 1.0 MPH 213.7w/m2
9/30/2011 0.13" 0.07" 0.00" 0.07" 80.7° 35.1° 57.9° 38.6% 1.7 MPH 192.2w/m2
Totals: 3.90" 2.44" 0.81" 1.79" 80.9° 28.6° 52.2° 83.5% 1.5 MPH 204.5w/m2